createdAt,value
2019-02-26T00:02:17.399Z,99604.72
2019-02-26T00:04:54.081Z,99606.88
2019-02-26T00:07:30.427Z,99606.88
2019-02-26T00:10:09.168Z,99588.42
2019-02-26T00:12:43.745Z,99588.42
2019-02-26T00:15:18.291Z,99608.28
2019-02-26T00:17:53.013Z,99597.34
2019-02-26T00:20:29.633Z,99599.13
2019-02-26T00:23:04.371Z,99603.08
2019-02-26T00:25:38.987Z,99596.67
2019-02-26T00:28:15.370Z,99595.55
2019-02-26T00:30:49.700Z,99595.55
2019-02-26T00:33:25.089Z,99598.86
2019-02-26T00:36:00.128Z,99591.55
2019-02-26T00:38:35.487Z,99582.64
2019-02-26T00:41:10.962Z,99582.64
2019-02-26T00:43:43.911Z,99586.58
2019-02-26T00:46:18.153Z,99579.13
2019-02-26T00:48:52.692Z,99570.70
2019-02-26T00:51:27.118Z,99564.95
2019-02-26T00:54:02.008Z,99564.95
2019-02-26T00:56:38.613Z,99555.33
2019-02-26T00:59:13.864Z,99557.06
2019-02-26T01:01:48.235Z,99558.37
2019-02-26T01:04:22.903Z,99566.27
2019-02-26T01:06:57.318Z,99579.47
2019-02-26T01:09:33.972Z,99576.16
2019-02-26T01:12:09.232Z,99583.01
2019-02-26T01:14:45.786Z,99575.34
2019-02-26T01:17:20.075Z,99571.55
2019-02-26T01:19:54.792Z,99572.92
2019-02-26T01:22:31.101Z,99579.61
2019-02-26T01:25:07.415Z,99579.84
2019-02-26T01:27:43.599Z,99579.25
2019-02-26T01:30:21.179Z,99581.63
2019-02-26T01:32:57.557Z,99573.52
2019-02-26T01:35:30.739Z,99559.00
2019-02-26T01:38:07.617Z,99554.77
2019-02-26T01:40:44.192Z,99554.77
2019-02-26T01:43:18.114Z,99554.20
2019-02-26T01:45:54.942Z,99552.25
2019-02-26T01:48:29.915Z,99541.89
2019-02-26T01:51:05.085Z,99534.18
2019-02-26T01:53:39.604Z,99519.84
2019-02-26T01:56:13.947Z,99519.84
2019-02-26T01:58:56.144Z,99517.31
2019-02-26T02:01:23.856Z,99511.64
2019-02-26T02:03:58.970Z,99516.75
2019-02-26T02:06:34.924Z,99498.81
2019-02-26T02:09:13.348Z,99498.81
2019-02-26T02:11:46.296Z,99496.12
2019-02-26T02:14:20.657Z,99504.81
2019-02-26T02:16:55.288Z,99506.42
2019-02-26T02:19:30.785Z,99510.59
2019-02-26T02:22:07.000Z,99505.05
2019-02-26T02:24:43.612Z,99503.02
2019-02-26T02:27:19.926Z,99503.02
2019-02-26T02:29:55.442Z,99497.69
2019-02-26T02:32:32.335Z,99505.18
2019-02-26T02:35:07.425Z,99493.39
2019-02-26T02:37:42.890Z,99493.39
2019-02-26T02:40:15.868Z,99492.39
2019-02-26T02:42:49.951Z,99489.80
2019-02-26T02:45:23.291Z,99480.14
2019-02-26T02:48:00.345Z,99484.17
2019-02-26T02:50:33.744Z,99484.17
2019-02-26T02:53:08.146Z,99485.70
2019-02-26T02:55:44.277Z,99476.41
2019-02-26T02:58:20.761Z,99486.33
2019-02-26T03:00:57.125Z,99488.36
2019-02-26T03:03:31.145Z,99495.06
2019-02-26T03:06:07.603Z,99484.80
2019-02-26T03:08:42.382Z,99496.17
2019-02-26T03:11:17.953Z,99506.19
2019-02-26T03:13:53.837Z,99495.78
2019-02-26T03:16:27.944Z,99487.70
2019-02-26T03:19:04.164Z,99473.10
2019-02-26T03:21:38.335Z,99473.10
2019-02-26T03:24:12.797Z,99479.84
2019-02-26T03:26:46.962Z,99479.75
2019-02-26T03:29:21.289Z,99487.66
2019-02-26T03:31:58.407Z,99489.67
2019-02-26T03:34:32.953Z,99489.67
2019-02-26T03:37:08.345Z,99484.70
2019-02-26T03:39:43.684Z,99494.70
2019-02-26T03:42:23.963Z,99497.27
2019-02-26T03:44:59.665Z,99489.01
2019-02-26T03:47:34.950Z,99489.01
2019-02-26T03:50:10.967Z,99490.76
2019-02-26T03:52:47.085Z,99484.91
2019-02-26T03:55:21.450Z,99485.96
2019-02-26T03:57:57.019Z,99485.96
2019-02-26T04:00:34.842Z,99505.16
2019-02-26T04:03:11.759Z,99501.05
2019-02-26T04:05:43.696Z,99501.66
2019-02-26T04:08:19.968Z,99503.80
2019-02-26T04:10:55.950Z,99506.17
2019-02-26T04:13:30.341Z,99498.69
2019-02-26T04:16:04.792Z,99498.69
2019-02-26T04:18:37.782Z,99499.10
2019-02-26T04:21:12.934Z,99502.81
2019-02-26T04:23:48.798Z,99501.65
2019-02-26T04:26:46.605Z,99492.84
2019-02-26T04:30:05.913Z,99501.25
2019-02-26T04:33:20.906Z,99505.78
2019-02-26T04:38:43.312Z,99504.59
2019-02-26T04:42:03.319Z,99505.98
2019-02-26T04:45:59.405Z,99498.52
2019-02-26T04:48:37.303Z,99482.23
2019-02-26T04:51:11.693Z,99482.23
2019-02-26T04:53:48.603Z,99479.69
2019-02-26T04:56:21.946Z,99482.23
2019-02-26T04:58:55.300Z,99473.02
2019-02-26T05:01:29.358Z,99460.46
2019-02-26T05:04:03.951Z,99460.46
2019-02-26T05:06:37.956Z,99461.05
2019-02-26T05:09:10.725Z,99469.67
2019-02-26T05:11:45.028Z,99469.67
2019-02-26T05:14:24.290Z,99468.30
2019-02-26T05:17:05.044Z,99468.30
2019-02-26T05:19:42.430Z,99466.36
2019-02-26T05:22:15.905Z,99466.36
2019-02-26T05:24:50.852Z,99476.16
2019-02-26T05:27:26.361Z,99476.16
2019-02-26T05:30:00.746Z,99471.64
2019-02-26T05:32:35.486Z,99461.45
2019-02-26T05:35:11.616Z,99457.34
2019-02-26T05:37:46.287Z,99464.39
2019-02-26T05:40:22.273Z,99467.13
2019-02-26T05:42:58.835Z,99476.49
2019-02-26T05:45:35.636Z,99467.09
2019-02-26T05:48:07.892Z,99477.70
2019-02-26T05:50:44.595Z,99478.10
2019-02-26T05:53:16.873Z,99471.25
2019-02-26T05:55:51.187Z,99469.30
2019-02-26T05:58:25.684Z,99471.25
2019-02-26T06:00:59.947Z,99471.25
2019-02-26T06:03:32.721Z,99469.49
2019-02-26T06:06:06.941Z,99471.45
2019-02-26T06:08:41.250Z,99479.28
2019-02-26T06:11:17.035Z,99477.91
2019-02-26T06:13:51.651Z,99465.36
2019-02-26T06:16:27.141Z,99470.69
2019-02-26T06:19:01.951Z,99477.33
2019-02-26T06:21:39.644Z,99481.46
2019-02-26T06:24:10.846Z,99485.00
2019-02-26T06:26:45.533Z,99477.73
2019-02-26T06:30:04.151Z,99477.93
2019-02-26T06:32:40.161Z,99478.50
2019-02-26T06:35:19.060Z,99476.75
2019-02-26T06:37:52.636Z,99489.70
2019-02-26T06:40:26.945Z,99489.70
2019-02-26T06:42:59.659Z,99481.45
2019-02-26T06:45:35.585Z,99485.77
2019-02-26T06:48:12.557Z,99478.89
2019-02-26T06:50:46.078Z,99478.89
2019-02-26T06:53:21.523Z,99486.76
2019-02-26T06:55:56.110Z,99486.76
2019-02-26T06:58:31.159Z,99502.83
2019-02-26T07:01:07.150Z,99491.27
2019-02-26T07:03:41.411Z,99495.19
2019-02-26T07:06:18.506Z,99495.19
2019-02-26T07:08:53.468Z,99493.61
2019-02-26T07:11:30.511Z,99491.77
2019-02-26T07:14:05.660Z,99498.44
2019-02-26T07:16:40.504Z,99488.34
2019-02-26T07:19:16.613Z,99491.37
2019-02-26T07:21:51.279Z,99495.44
2019-02-26T07:24:27.154Z,99491.61
2019-02-26T07:27:02.460Z,99477.49
2019-02-26T07:29:42.460Z,99492.16
2019-02-26T07:32:17.915Z,99492.16
2019-02-26T07:34:52.686Z,99495.80
2019-02-26T07:37:28.615Z,99497.95
2019-02-26T07:40:05.237Z,99499.97
2019-02-26T07:42:41.343Z,99483.69
2019-02-26T07:45:19.733Z,99480.79
2019-02-26T07:47:54.069Z,99480.79
2019-02-26T07:50:31.280Z,99479.39
2019-02-26T07:53:05.118Z,99476.39
2019-02-26T07:55:42.399Z,99483.24
2019-02-26T07:58:17.880Z,99480.44
2019-02-26T08:00:52.427Z,99480.34
2019-02-26T08:03:29.287Z,99480.34
2019-02-26T08:06:06.529Z,99481.38
2019-02-26T08:08:40.256Z,99470.45
2019-02-26T08:11:15.058Z,99470.45
2019-02-26T08:13:49.868Z,99479.70
2019-02-26T08:16:27.497Z,99482.63
2019-02-26T08:19:01.493Z,99483.05
2019-02-26T08:21:35.882Z,99483.05
2019-02-26T08:24:10.624Z,99481.00
2019-02-26T08:26:45.347Z,99485.72
2019-02-26T08:29:20.926Z,99485.16
2019-02-26T08:31:56.880Z,99474.96
2019-02-26T08:34:29.705Z,99481.91
2019-02-26T08:37:04.238Z,99482.75
2019-02-26T08:39:38.758Z,99481.14
2019-02-26T08:42:12.687Z,99477.88
2019-02-26T08:44:48.669Z,99468.09
2019-02-26T08:47:23.495Z,99471.27
2019-02-26T08:49:58.893Z,99465.71
2019-02-26T08:52:34.114Z,99453.30
2019-02-26T08:55:10.732Z,99458.77
2019-02-26T08:57:46.317Z,99458.77
2019-02-26T09:00:21.107Z,99461.81
2019-02-26T09:02:56.628Z,99461.81
2019-02-26T09:05:33.995Z,99460.65
2019-02-26T09:08:08.483Z,99470.16
2019-02-26T09:10:43.753Z,99466.56
2019-02-26T09:13:18.921Z,99473.75
2019-02-26T09:15:55.140Z,99472.60
2019-02-26T09:18:31.510Z,99472.60
2019-02-26T09:21:07.084Z,99480.55
2019-02-26T09:23:41.254Z,99480.94
2019-02-26T09:26:15.668Z,99480.31
2019-02-26T09:28:50.500Z,99486.06
2019-02-26T09:31:26.065Z,99483.77
2019-02-26T09:34:00.389Z,99483.13
2019-02-26T09:36:34.935Z,99487.36
2019-02-26T09:39:10.660Z,99487.36
2019-02-26T09:41:45.939Z,99490.94
2019-02-26T09:44:20.275Z,99494.43
2019-02-26T09:46:55.350Z,99492.20
2019-02-26T09:49:33.155Z,99491.41
2019-02-26T09:52:06.885Z,99496.25
2019-02-26T09:54:42.938Z,99487.69
2019-02-26T09:57:18.029Z,99482.92
2019-02-26T09:59:55.266Z,99489.75
2019-02-26T10:02:28.885Z,99493.48
2019-02-26T10:05:01.663Z,99496.52
2019-02-26T10:07:38.640Z,99500.26
2019-02-26T10:10:14.168Z,99487.95
2019-02-26T10:12:48.595Z,99479.64
2019-02-26T10:15:22.936Z,99479.64
2019-02-26T10:17:59.586Z,99481.96
2019-02-26T10:20:33.684Z,99482.13
2019-02-26T10:23:08.107Z,99479.48
2019-02-26T10:25:47.329Z,99487.79
2019-02-26T10:28:22.395Z,99487.79
2019-02-26T10:30:59.625Z,99487.58
2019-02-26T10:33:35.917Z,99494.00
2019-02-26T10:36:11.043Z,99492.80
2019-02-26T10:38:46.340Z,99492.58
2019-02-26T10:41:21.237Z,99492.92
2019-02-26T10:43:55.707Z,99492.91
2019-02-26T10:46:32.148Z,99497.53
2019-02-26T10:49:04.688Z,99491.23
2019-02-26T10:51:42.396Z,99485.53
2019-02-26T10:54:17.828Z,99479.94
2019-02-26T10:56:49.957Z,99482.22
2019-02-26T10:59:24.207Z,99481.32
2019-02-26T11:02:00.751Z,99483.23
2019-02-26T11:04:38.099Z,99483.23
2019-02-26T11:07:11.545Z,99479.12
2019-02-26T11:09:49.987Z,99482.67
2019-02-26T11:12:25.173Z,99491.30
2019-02-26T11:15:01.426Z,99488.28
2019-02-26T11:17:35.767Z,99486.95
2019-02-26T11:20:09.661Z,99475.65
2019-02-26T11:22:44.869Z,99469.38
2019-02-26T11:25:21.335Z,99469.75
2019-02-26T11:27:54.922Z,99479.12
2019-02-26T11:30:32.107Z,99475.53
2019-02-26T11:33:07.993Z,99474.59
2019-02-26T11:35:43.892Z,99477.09
2019-02-26T11:38:19.594Z,99477.09
2019-02-26T11:40:54.286Z,99471.84
2019-02-26T11:43:29.956Z,99476.54
2019-02-26T11:46:06.853Z,99471.30
2019-02-26T11:48:41.893Z,99471.30
2019-02-26T11:51:17.717Z,99476.16
2019-02-26T11:53:52.353Z,99462.70
2019-02-26T11:56:26.901Z,99462.70
2019-02-26T11:59:01.282Z,99459.87
2019-02-26T12:01:37.012Z,99453.53
2019-02-26T12:04:14.266Z,99449.41
2019-02-26T12:06:48.288Z,99447.59
2019-02-26T12:09:23.060Z,99435.48
2019-02-26T12:11:58.522Z,99423.63
2019-02-26T12:14:34.676Z,99423.63
2019-02-26T12:17:10.290Z,99424.70
2019-02-26T12:19:46.108Z,99426.90
2019-02-26T12:22:22.597Z,99424.03
2019-02-26T12:24:58.892Z,99421.75
2019-02-26T12:27:36.016Z,99408.27
2019-02-26T12:30:18.210Z,99408.27
2019-02-26T12:32:55.154Z,99415.73
2019-02-26T12:35:33.005Z,99413.13
2019-02-26T12:38:17.476Z,99413.13
2019-02-26T12:40:44.710Z,99407.69
2019-02-26T12:43:19.248Z,99410.95
2019-02-26T12:45:55.960Z,99405.17
2019-02-26T12:48:30.213Z,99415.92
2019-02-26T12:51:07.520Z,99399.08
2019-02-26T12:53:50.002Z,99399.08
2019-02-26T12:56:24.343Z,99400.58
2019-02-26T12:59:00.977Z,99400.58
2019-02-26T13:01:36.218Z,99404.13
2019-02-26T13:04:12.896Z,99404.50
2019-02-26T13:06:49.260Z,99404.50
2019-02-26T13:09:26.796Z,99406.60
2019-02-26T13:12:02.780Z,99396.11
2019-02-26T13:14:36.953Z,99396.11
2019-02-26T13:17:13.887Z,99396.94
2019-02-26T13:19:49.194Z,99391.74
2019-02-26T13:22:23.720Z,99398.05
2019-02-26T13:24:56.871Z,99398.05
2019-02-26T13:27:30.245Z,99390.36
2019-02-26T13:30:05.127Z,99387.42
2019-02-26T13:32:55.098Z,99372.45
2019-02-26T13:35:16.278Z,99386.96
2019-02-26T13:37:51.782Z,99372.19
2019-02-26T13:40:25.095Z,99367.77
2019-02-26T13:45:35.284Z,99371.71
2019-02-26T13:48:10.283Z,99377.13
2019-02-26T13:50:44.947Z,99369.39
2019-02-26T13:53:19.326Z,99364.73
2019-02-26T13:55:53.950Z,99355.25
2019-02-26T13:58:28.288Z,99363.97
2019-02-26T14:01:03.115Z,99361.73
2019-02-26T14:03:37.794Z,99361.73
2019-02-26T14:06:12.286Z,99356.54
2019-02-26T14:08:47.272Z,99359.78
2019-02-26T14:11:21.944Z,99358.22
2019-02-26T14:13:56.702Z,99344.67
2019-02-26T14:16:32.645Z,99344.67
2019-02-26T14:19:06.150Z,99351.20
2019-02-26T14:21:40.766Z,99339.61
2019-02-26T14:24:14.098Z,99343.78
2019-02-26T14:26:48.624Z,99339.77
2019-02-26T14:29:23.267Z,99337.53
2019-02-26T14:31:58.117Z,99337.53
2019-02-26T14:37:17.716Z,99342.36
2019-02-26T14:39:51.054Z,99342.36
2019-02-26T14:42:25.288Z,99334.45
2019-02-26T14:44:59.919Z,99333.06
2019-02-26T14:47:34.424Z,99329.47
2019-02-26T14:50:11.599Z,99330.11
2019-02-26T14:52:46.199Z,99327.36
2019-02-26T14:55:21.300Z,99321.31
2019-02-26T14:57:55.920Z,99321.31
2019-02-26T15:00:30.339Z,99319.74
2019-02-26T15:03:05.331Z,99326.59
2019-02-26T15:05:40.124Z,99318.97
2019-02-26T15:08:14.675Z,99316.77
2019-02-26T15:10:49.467Z,99316.77
2019-02-26T15:13:25.536Z,99320.18
2019-02-26T15:16:00.282Z,99312.91
2019-02-26T15:18:35.797Z,99314.28
2019-02-26T15:21:10.443Z,99307.47
2019-02-26T15:23:45.240Z,99307.47
2019-02-26T15:26:19.883Z,99305.16
2019-02-26T15:28:54.274Z,99311.20
2019-02-26T15:31:28.958Z,99311.17
2019-02-26T15:34:03.684Z,99308.25
2019-02-26T15:36:39.917Z,99308.25
2019-02-26T15:39:14.282Z,99310.10
2019-02-26T15:41:50.552Z,99314.13
2019-02-26T15:44:26.131Z,99323.89
2019-02-26T15:47:02.367Z,99328.23
2019-02-26T15:49:37.763Z,99328.23
2019-02-26T15:52:13.118Z,99327.59
2019-02-26T15:58:03.031Z,99328.69
2019-02-26T16:00:37.966Z,99323.69
2019-02-26T16:03:13.293Z,99319.29
2019-02-26T16:05:47.945Z,99319.29
2019-02-26T16:08:23.084Z,99324.70
2019-02-26T16:10:57.376Z,99324.80
2019-02-26T16:13:32.124Z,99326.95
2019-02-26T16:16:07.263Z,99330.67
2019-02-26T16:18:42.309Z,99328.50
2019-02-26T16:21:19.305Z,99327.11
2019-02-26T16:23:53.355Z,99339.94
2019-02-26T16:26:33.945Z,99347.26
2019-02-26T16:29:08.420Z,99333.31
2019-02-26T16:31:43.271Z,99333.59
2019-02-26T16:34:19.934Z,99335.28
2019-02-26T16:36:55.369Z,99335.28
2019-02-26T16:39:30.274Z,99324.58
2019-02-26T16:42:05.282Z,99335.44
2019-02-26T16:44:40.963Z,99335.44
2019-02-26T16:47:15.794Z,99332.66
2019-02-26T16:49:51.774Z,99332.19
2019-02-26T16:52:27.752Z,99337.15
2019-02-26T16:55:05.292Z,99335.66
2019-02-26T16:57:40.130Z,99348.73
2019-02-26T17:00:18.346Z,99346.70
2019-02-26T17:02:54.280Z,99356.36
2019-02-26T17:05:30.122Z,99359.30
2019-02-26T17:08:04.939Z,99355.43
2019-02-26T17:10:39.433Z,99356.61
2019-02-26T17:13:14.957Z,99352.58
2019-02-26T17:15:49.468Z,99345.53
2019-02-26T17:18:24.286Z,99350.12
2019-02-26T17:20:58.958Z,99350.16
2019-02-26T17:23:34.794Z,99347.23
2019-02-26T17:26:11.888Z,99349.15
2019-02-26T17:28:44.867Z,99349.15
2019-02-26T17:31:19.316Z,99340.97
2019-02-26T17:33:54.166Z,99337.13
2019-02-26T17:36:29.858Z,99331.88
2019-02-26T17:39:04.282Z,99333.90
2019-02-26T17:41:39.693Z,99336.48
2019-02-26T17:44:14.272Z,99336.48
2019-02-26T17:46:50.758Z,99330.52
2019-02-26T17:49:26.283Z,99330.39
2019-02-26T17:52:01.285Z,99325.50
2019-02-26T17:54:36.937Z,99332.66
2019-02-26T17:57:11.939Z,99331.80
2019-02-26T17:59:52.746Z,99322.20
2019-02-26T18:02:27.982Z,99322.20
2019-02-26T18:05:04.684Z,99333.47
2019-02-26T18:08:23.672Z,99333.47
2019-02-26T18:10:58.256Z,99335.06
2019-02-26T18:13:33.121Z,99345.81
2019-02-26T18:16:09.401Z,99340.25
2019-02-26T18:18:44.084Z,99336.02
2019-02-26T18:21:18.654Z,99314.95
2019-02-26T18:23:54.338Z,99314.95
2019-02-26T18:26:30.288Z,99325.93
2019-02-26T18:29:07.502Z,99318.88
2019-02-26T18:31:42.944Z,99329.06
2019-02-26T18:34:17.755Z,99331.14
2019-02-26T18:36:52.283Z,99331.14
2019-02-26T18:39:28.947Z,99338.18
2019-02-26T18:42:07.567Z,99336.84
2019-02-26T18:44:41.276Z,99336.84
2019-02-26T18:47:15.947Z,99333.12
2019-02-26T18:49:50.377Z,99331.12
2019-02-26T18:52:27.902Z,99334.54
2019-02-26T18:55:03.344Z,99334.54
2019-02-26T18:57:38.945Z,99334.14
2019-02-26T19:00:17.369Z,99345.91
2019-02-26T19:02:53.412Z,99339.44
2019-02-26T19:05:28.284Z,99339.44
2019-02-26T19:08:05.803Z,99341.26
2019-02-26T19:10:41.283Z,99342.59
2019-02-26T19:13:15.942Z,99349.89
2019-02-26T19:15:51.426Z,99352.18
2019-02-26T19:18:26.271Z,99343.27
2019-02-26T19:21:01.291Z,99346.24
2019-02-26T19:23:36.895Z,99353.23
2019-02-26T19:26:13.568Z,99353.16
2019-02-26T19:28:47.946Z,99358.06
2019-02-26T19:31:21.351Z,99358.06
2019-02-26T19:33:55.996Z,99354.27
2019-02-26T19:36:30.957Z,99349.58
2019-02-26T19:39:07.843Z,99348.14
2019-02-26T19:41:45.478Z,99348.14
2019-02-26T19:44:20.926Z,99351.61
2019-02-26T19:46:55.468Z,99355.59
2019-02-26T19:49:30.282Z,99355.59
2019-02-26T19:52:05.282Z,99356.78
2019-02-26T19:54:42.037Z,99364.02
2019-02-26T19:57:24.681Z,99357.45
2019-02-26T20:00:04.098Z,99351.92
2019-02-26T20:02:39.621Z,99346.55
2019-02-26T20:05:22.289Z,99341.34
2019-02-26T20:07:57.723Z,99341.34
2019-02-26T20:10:31.034Z,99338.93
2019-02-26T20:13:04.200Z,99352.25
2019-02-26T20:15:38.964Z,99350.88
2019-02-26T20:18:20.720Z,99354.66
2019-02-26T20:20:51.940Z,99352.41
2019-02-26T20:23:26.604Z,99358.33
2019-02-26T20:26:03.510Z,99354.09
2019-02-26T20:28:42.102Z,99355.02
2019-02-26T20:31:16.572Z,99348.57
2019-02-26T20:33:57.353Z,99348.57
2019-02-26T20:36:32.279Z,99344.48
2019-02-26T20:39:08.486Z,99341.20
2019-02-26T20:41:43.007Z,99344.98
2019-02-26T20:44:15.866Z,99343.08
2019-02-26T20:46:50.119Z,99343.41
2019-02-26T20:49:25.676Z,99341.80
2019-02-26T20:52:00.313Z,99341.80
2019-02-26T20:54:35.735Z,99341.42
2019-02-26T20:57:10.283Z,99341.59
2019-02-26T20:59:44.725Z,99339.47
2019-02-26T21:02:21.137Z,99340.66
2019-02-26T21:04:55.892Z,99336.89
2019-02-26T21:07:30.298Z,99336.89
2019-02-26T21:10:06.976Z,99344.03
2019-02-26T21:12:43.336Z,99344.11
2019-02-26T21:15:19.878Z,99335.88
2019-02-26T21:17:57.771Z,99329.69
2019-02-26T21:20:38.864Z,99333.91
2019-02-26T21:23:15.799Z,99337.86
2019-02-26T21:25:49.056Z,99339.36
2019-02-26T21:28:33.758Z,99343.88
2019-02-26T21:31:07.214Z,99343.88
2019-02-26T21:33:41.989Z,99341.83
2019-02-26T21:36:18.633Z,99331.75
2019-02-26T21:38:59.352Z,99331.75
2019-02-26T21:41:38.700Z,99326.41
2019-02-26T21:45:06.610Z,99326.41
2019-02-26T21:47:40.483Z,99319.73
2019-02-26T21:50:15.316Z,99324.73
2019-02-26T21:53:05.545Z,99324.31
2019-02-26T21:55:27.737Z,99322.97
2019-02-26T21:58:16.960Z,99317.75
2019-02-26T22:01:01.312Z,99314.08
2019-02-26T22:03:39.295Z,99311.80
2019-02-26T22:06:19.339Z,99311.80
2019-02-26T22:08:57.105Z,99309.70
2019-02-26T22:11:35.325Z,99309.55
2019-02-26T22:14:10.256Z,99302.35
2019-02-26T22:16:44.957Z,99303.02
2019-02-26T22:19:19.349Z,99298.63
2019-02-26T22:21:54.458Z,99298.63
2019-02-26T22:24:31.302Z,99297.66
2019-02-26T22:27:08.803Z,99295.56
2019-02-26T22:29:42.120Z,99293.66
2019-02-26T22:32:18.334Z,99283.50
2019-02-26T22:34:53.593Z,99286.28
2019-02-26T22:37:30.782Z,99290.08
2019-02-26T22:40:11.961Z,99281.17
2019-02-26T22:42:47.715Z,99287.09
2019-02-26T22:45:27.614Z,99287.09
2019-02-26T22:47:59.706Z,99283.17
2019-02-26T22:50:34.354Z,99286.98
2019-02-26T22:53:10.475Z,99279.51
2019-02-26T22:55:54.512Z,99286.08
2019-02-26T22:58:29.286Z,99286.08
2019-02-26T23:01:30.771Z,99283.19
2019-02-26T23:04:19.282Z,99274.81
2019-02-26T23:06:51.984Z,99274.81
2019-02-26T23:09:29.952Z,99270.61
2019-02-26T23:12:07.433Z,99267.34
2019-02-26T23:14:43.262Z,99267.34
2019-02-26T23:17:19.397Z,99269.50
2019-02-26T23:19:55.299Z,99259.53
2019-02-26T23:22:38.796Z,99261.34
2019-02-26T23:25:07.339Z,99262.77
2019-02-26T23:27:42.299Z,99254.17
2019-02-26T23:30:17.301Z,99267.04
2019-02-26T23:33:01.835Z,99267.04
2019-02-26T23:35:35.373Z,99265.12
2019-02-26T23:38:46.389Z,99269.52
2019-02-26T23:41:21.147Z,99264.72
2019-02-26T23:43:55.817Z,99264.72
2019-02-26T23:46:29.759Z,99276.27
2019-02-26T23:49:11.799Z,99275.58
2019-02-26T23:51:53.634Z,99275.58
2019-02-26T23:54:28.318Z,99273.81
2019-02-26T23:57:03.333Z,99284.09
2019-02-26T23:59:52.395Z,99283.16
